WAT5643 KATL-MKJP
Flight info
| Callsign | WAT5643 |
|---|---|
| Flight time | 2h 32m |
| Altitude | 35000 |
| Route | VRSTY3 NOKIE DCT YANTI Q89 SHRKS DCT DEBRL Q97 TOVAR Y297 URSUS UP406 BILSI UL795 LENAX UL417 NEFTU UP525 EMABU UA301 IMADI/N0398F230 A301 SAVEM KEYNO3 |
| Aircraft | A21N/M-SDE3FGHIJ5RWY/LB1 |
Departure
| Time | 2026-05-08 18:59 |
|---|---|
| Airport | Hartsfield Jackson Atlanta International Airport (KATL) |
Arrival
| Time | 2026-05-08 21:32 |
|---|---|
| Airport | Norman Manley International Airport (MKJP) |
| Time | Latitude | Longitude | Altitude | Speed | Heading |
|---|---|---|---|---|---|
| 2026-05-08 18:36 | 33.64190 | -84.42878 | 1004 ft | 0 kts | 263° |
| 2026-05-08 18:48 | 33.64191 | -84.42877 | 1004 ft | 0 kts | 263° |
| 2026-05-08 18:48 | 33.64192 | -84.42862 | 1004 ft | 2 kts | 263° |
| 2026-05-08 18:48 | 33.64194 | -84.42846 | 1003 ft | 2 kts | 264° |
| 2026-05-08 18:48 | 33.64189 | -84.42825 | 1003 ft | 2 kts | 303° |
| 2026-05-08 18:49 | 33.64179 | -84.42812 | 1003 ft | 2 kts | 329° |
| 2026-05-08 18:49 | 33.64165 | -84.42806 | 1003 ft | 1 kts | 354° |
| 2026-05-08 18:49 | 33.64159 | -84.42806 | 1003 ft | 1 kts | 4° |
| 2026-05-08 18:49 | 33.64156 | -84.42806 | 1003 ft | 0 kts | 0° |
| 2026-05-08 18:52 | 33.64157 | -84.42806 | 1003 ft | 0 kts | 0° |
| 2026-05-08 18:52 | 33.64171 | -84.42806 | 1003 ft | 4 kts | 359° |
| 2026-05-08 18:52 | 33.64208 | -84.42806 | 1002 ft | 7 kts | 359° |
| 2026-05-08 18:52 | 33.64260 | -84.42806 | 1001 ft | 9 kts | 359° |
| 2026-05-08 18:53 | 33.64324 | -84.42806 | 1000 ft | 11 kts | 0° |
| 2026-05-08 18:53 | 33.64393 | -84.42806 | 1000 ft | 11 kts | 0° |
| 2026-05-08 18:53 | 33.64455 | -84.42831 | 1001 ft | 11 kts | 299° |
| 2026-05-08 18:53 | 33.64460 | -84.42910 | 1002 ft | 10 kts | 269° |
| 2026-05-08 18:54 | 33.64460 | -84.42981 | 1003 ft | 9 kts | 270° |
| 2026-05-08 18:54 | 33.64460 | -84.43050 | 1004 ft | 10 kts | 269° |
| 2026-05-08 18:54 | 33.64460 | -84.43129 | 1004 ft | 12 kts | 270° |
| 2026-05-08 18:54 | 33.64460 | -84.43214 | 1005 ft | 12 kts | 269° |
| 2026-05-08 18:55 | 33.64459 | -84.43391 | 1009 ft | 12 kts | 270° |
| 2026-05-08 18:55 | 33.64460 | -84.43480 | 1010 ft | 12 kts | 269° |
| 2026-05-08 18:55 | 33.64459 | -84.43567 | 1011 ft | 11 kts | 270° |
| 2026-05-08 18:56 | 33.64459 | -84.43648 | 1013 ft | 11 kts | 269° |
| 2026-05-08 18:56 | 33.64459 | -84.43726 | 1014 ft | 10 kts | 269° |
| 2026-05-08 18:56 | 33.64475 | -84.43793 | 1016 ft | 9 kts | 308° |
| 2026-05-08 18:56 | 33.64522 | -84.43822 | 1016 ft | 9 kts | 356° |
| 2026-05-08 18:57 | 33.64552 | -84.43821 | 1016 ft | 0 kts | 2° |
| 2026-05-08 18:57 | 33.64555 | -84.43821 | 1016 ft | 0 kts | 2° |
| 2026-05-08 18:57 | 33.64563 | -84.43820 | 1016 ft | 2 kts | 1° |
| 2026-05-08 18:58 | 33.64602 | -84.43819 | 1016 ft | 11 kts | 360° |
| 2026-05-08 18:58 | 33.64668 | -84.43806 | 1016 ft | 11 kts | 49° |
| 2026-05-08 18:58 | 33.64678 | -84.43638 | 1013 ft | 51 kts | 90° |
| 2026-05-08 18:58 | 33.64676 | -84.43073 | 1002 ft | 110 kts | 90° |
| 2026-05-08 18:59 | 33.64679 | -84.42105 | 978 ft | 162 kts | 89° |
| 2026-05-08 18:59 | 33.64681 | -84.40865 | 1172 ft | 185 kts | 90° |
| 2026-05-08 18:59 | 33.64676 | -84.39586 | 1696 ft | 186 kts | 92° |
| 2026-05-08 18:59 | 33.64536 | -84.38305 | 2276 ft | 189 kts | 104° |
| 2026-05-08 19:00 | 33.64243 | -84.37067 | 2894 ft | 190 kts | 108° |
| 2026-05-08 19:00 | 33.63900 | -84.35786 | 3315 ft | 200 kts | 108° |
| 2026-05-08 19:00 | 33.63486 | -84.34457 | 3671 ft | 213 kts | 115° |
| 2026-05-08 19:00 | 33.62833 | -84.32907 | 4074 ft | 229 kts | 121° |
| 2026-05-08 19:01 | 33.62141 | -84.31487 | 4354 ft | 248 kts | 122° |
| 2026-05-08 19:01 | 33.61389 | -84.29980 | 4726 ft | 264 kts | 123° |
| 2026-05-08 19:01 | 33.60403 | -84.28513 | 5198 ft | 272 kts | 143° |
| 2026-05-08 19:01 | 33.59027 | -84.27646 | 5798 ft | 271 kts | 168° |
| 2026-05-08 19:02 | 33.57497 | -84.27448 | 6428 ft | 269 kts | 184° |
| 2026-05-08 19:02 | 33.55945 | -84.27493 | 7042 ft | 272 kts | 186° |
| 2026-05-08 19:02 | 33.54386 | -84.27548 | 7547 ft | 280 kts | 186° |
| 2026-05-08 19:02 | 33.52742 | -84.27587 | 8086 ft | 286 kts | 186° |
| 2026-05-08 19:03 | 33.51105 | -84.27608 | 8709 ft | 289 kts | 186° |
| 2026-05-08 19:03 | 33.49432 | -84.27621 | 9340 ft | 291 kts | 187° |
| 2026-05-08 19:03 | 33.47735 | -84.27624 | 9953 ft | 295 kts | 186° |
| 2026-05-08 19:03 | 33.45928 | -84.27533 | 10585 ft | 300 kts | 182° |
| 2026-05-08 19:04 | 33.43828 | -84.27224 | 11202 ft | 311 kts | 177° |
| 2026-05-08 19:04 | 33.41615 | -84.26743 | 11559 ft | 329 kts | 176° |
| 2026-05-08 19:04 | 33.39278 | -84.26101 | 11878 ft | 351 kts | 168° |
| 2026-05-08 19:04 | 33.36971 | -84.24844 | 12228 ft | 374 kts | 153° |
| 2026-05-08 19:05 | 33.34809 | -84.22958 | 12853 ft | 384 kts | 146° |
| 2026-05-08 19:05 | 33.32691 | -84.20881 | 13510 ft | 389 kts | 144° |
| 2026-05-08 19:05 | 33.30671 | -84.18870 | 14111 ft | 394 kts | 145° |
| 2026-05-08 19:05 | 33.28567 | -84.16798 | 14778 ft | 396 kts | 146° |
| 2026-05-08 19:06 | 33.26422 | -84.14710 | 15394 ft | 399 kts | 146° |
| 2026-05-08 19:06 | 33.24226 | -84.12591 | 16035 ft | 402 kts | 147° |
| 2026-05-08 19:06 | 33.22016 | -84.10469 | 16664 ft | 404 kts | 147° |
| 2026-05-08 19:06 | 33.19851 | -84.08396 | 17262 ft | 407 kts | 148° |
| 2026-05-08 19:07 | 33.17800 | -84.06433 | 17836 ft | 408 kts | 148° |
| 2026-05-08 19:07 | 33.15725 | -84.04449 | 18380 ft | 411 kts | 148° |
| 2026-05-08 19:07 | 33.13473 | -84.02301 | 18961 ft | 414 kts | 148° |
| 2026-05-08 19:07 | 33.11223 | -84.00161 | 19449 ft | 419 kts | 148° |
| 2026-05-08 19:08 | 33.08935 | -83.97987 | 19967 ft | 422 kts | 149° |
| 2026-05-08 19:08 | 33.06583 | -83.95924 | 20442 ft | 424 kts | 152° |
| 2026-05-08 19:08 | 33.04151 | -83.93882 | 20926 ft | 428 kts | 153° |
| 2026-05-08 19:08 | 33.01723 | -83.91859 | 21397 ft | 432 kts | 153° |
| 2026-05-08 19:09 | 32.99249 | -83.89795 | 21943 ft | 433 kts | 153° |
| 2026-05-08 19:09 | 32.96756 | -83.87715 | 22416 ft | 437 kts | 153° |
| 2026-05-08 19:09 | 32.94255 | -83.85629 | 22899 ft | 440 kts | 153° |
| 2026-05-08 19:09 | 32.91747 | -83.83536 | 23375 ft | 442 kts | 153° |
| 2026-05-08 19:10 | 32.89259 | -83.81458 | 23860 ft | 444 kts | 153° |
| 2026-05-08 19:10 | 32.86713 | -83.79335 | 24372 ft | 445 kts | 154° |
| 2026-05-08 19:10 | 32.84141 | -83.77196 | 24823 ft | 447 kts | 153° |
| 2026-05-08 19:10 | 32.81587 | -83.75069 | 25204 ft | 451 kts | 154° |
| 2026-05-08 19:11 | 32.78979 | -83.72898 | 25676 ft | 452 kts | 154° |
| 2026-05-08 19:11 | 32.76378 | -83.70735 | 26118 ft | 453 kts | 154° |
| 2026-05-08 19:11 | 32.73782 | -83.68581 | 26482 ft | 456 kts | 154° |
| 2026-05-08 19:11 | 32.71398 | -83.66605 | 26793 ft | 459 kts | 154° |
| 2026-05-08 19:12 | 32.68922 | -83.64549 | 27147 ft | 461 kts | 153° |
| 2026-05-08 19:12 | 32.66293 | -83.62280 | 27480 ft | 466 kts | 152° |
| 2026-05-08 19:12 | 32.63667 | -83.59950 | 27807 ft | 469 kts | 152° |
| 2026-05-08 19:12 | 32.61048 | -83.57617 | 28167 ft | 471 kts | 152° |
| 2026-05-08 19:13 | 32.58420 | -83.55281 | 28490 ft | 473 kts | 152° |
| 2026-05-08 19:13 | 32.55747 | -83.52912 | 28856 ft | 474 kts | 152° |
| 2026-05-08 19:13 | 32.53083 | -83.50557 | 29139 ft | 477 kts | 153° |
| 2026-05-08 19:13 | 32.50399 | -83.48191 | 29407 ft | 480 kts | 152° |
| 2026-05-08 19:14 | 32.47683 | -83.45802 | 29687 ft | 483 kts | 152° |
| 2026-05-08 19:14 | 32.44989 | -83.43429 | 30107 ft | 481 kts | 153° |
| 2026-05-08 19:14 | 32.42294 | -83.41055 | 30509 ft | 481 kts | 153° |
| 2026-05-08 19:14 | 32.39580 | -83.38667 | 30878 ft | 480 kts | 153° |
| 2026-05-08 19:15 | 32.36935 | -83.36346 | 31190 ft | 481 kts | 153° |
| 2026-05-08 19:15 | 32.34234 | -83.33981 | 31555 ft | 480 kts | 154° |
| 2026-05-08 19:15 | 32.31529 | -83.31609 | 31910 ft | 478 kts | 154° |
| 2026-05-08 19:15 | 32.28852 | -83.29264 | 32255 ft | 477 kts | 154° |
| 2026-05-08 19:16 | 32.26152 | -83.26899 | 32570 ft | 476 kts | 154° |
| 2026-05-08 19:16 | 32.23501 | -83.24585 | 32855 ft | 475 kts | 154° |
| 2026-05-08 19:16 | 32.20829 | -83.22254 | 33064 ft | 476 kts | 154° |
| 2026-05-08 19:16 | 32.18208 | -83.19972 | 33256 ft | 478 kts | 155° |
| 2026-05-08 19:17 | 32.16001 | -83.18048 | 33414 ft | 479 kts | 154° |
| 2026-05-08 19:17 | 32.13765 | -83.16103 | 33571 ft | 480 kts | 154° |
| 2026-05-08 19:17 | 32.11473 | -83.14107 | 33711 ft | 482 kts | 154° |
| 2026-05-08 19:17 | 32.09241 | -83.12163 | 33878 ft | 483 kts | 154° |
| 2026-05-08 19:18 | 32.06961 | -83.10180 | 34056 ft | 483 kts | 154° |
| 2026-05-08 19:18 | 32.04688 | -83.08201 | 34227 ft | 484 kts | 154° |
| 2026-05-08 19:18 | 32.02405 | -83.06216 | 34410 ft | 484 kts | 154° |
| 2026-05-08 19:18 | 32.00146 | -83.04256 | 34551 ft | 485 kts | 154° |
| 2026-05-08 19:19 | 31.97869 | -83.02278 | 34678 ft | 486 kts | 154° |
| 2026-05-08 19:19 | 31.95592 | -83.00301 | 34895 ft | 485 kts | 155° |
| 2026-05-08 19:19 | 31.93329 | -82.98338 | 35006 ft | 487 kts | 154° |
| 2026-05-08 19:20 | 31.88748 | -82.94382 | 35010 ft | 490 kts | 154° |
| 2026-05-08 19:20 | 31.84066 | -82.90330 | 35006 ft | 490 kts | 154° |
| 2026-05-08 19:21 | 31.79477 | -82.86359 | 35000 ft | 491 kts | 153° |
| 2026-05-08 19:21 | 31.74962 | -82.82144 | 35002 ft | 494 kts | 151° |
| 2026-05-08 19:22 | 31.70507 | -82.77902 | 35005 ft | 496 kts | 151° |
| 2026-05-08 19:22 | 31.65988 | -82.73598 | 35006 ft | 495 kts | 151° |
| 2026-05-08 19:23 | 31.61461 | -82.69299 | 35004 ft | 496 kts | 150° |
| 2026-05-08 19:23 | 31.56988 | -82.65063 | 35013 ft | 495 kts | 151° |
| 2026-05-08 19:24 | 31.52503 | -82.60819 | 35018 ft | 495 kts | 151° |
| 2026-05-08 19:24 | 31.47998 | -82.56567 | 35016 ft | 496 kts | 150° |
| 2026-05-08 19:25 | 31.43499 | -82.52319 | 35009 ft | 496 kts | 151° |
| 2026-05-08 19:25 | 31.39000 | -82.48083 | 35013 ft | 495 kts | 150° |
| 2026-05-08 19:26 | 31.34483 | -82.43836 | 35013 ft | 496 kts | 151° |
| 2026-05-08 19:26 | 31.29896 | -82.39523 | 35001 ft | 494 kts | 151° |
| 2026-05-08 19:27 | 31.25414 | -82.35317 | 35004 ft | 494 kts | 150° |
| 2026-05-08 19:27 | 31.20873 | -82.31067 | 35001 ft | 497 kts | 151° |
| 2026-05-08 19:28 | 31.16369 | -82.26843 | 34999 ft | 493 kts | 151° |
| 2026-05-08 19:28 | 31.11884 | -82.22654 | 35001 ft | 496 kts | 151° |
| 2026-05-08 19:29 | 31.07354 | -82.18423 | 34999 ft | 494 kts | 151° |
| 2026-05-08 19:29 | 31.02893 | -82.14259 | 34996 ft | 495 kts | 151° |
| 2026-05-08 19:30 | 30.98376 | -82.10053 | 34995 ft | 494 kts | 151° |
| 2026-05-08 19:30 | 30.93841 | -82.05835 | 35000 ft | 494 kts | 151° |
| 2026-05-08 19:31 | 30.89338 | -82.01649 | 34998 ft | 494 kts | 151° |
| 2026-05-08 19:31 | 30.84750 | -81.97393 | 34995 ft | 495 kts | 150° |
| 2026-05-08 19:32 | 30.80131 | -81.93112 | 34988 ft | 494 kts | 150° |
| 2026-05-08 19:32 | 30.75617 | -81.88933 | 34979 ft | 495 kts | 150° |
| 2026-05-08 19:33 | 30.71029 | -81.84689 | 34989 ft | 494 kts | 150° |
| 2026-05-08 19:33 | 30.66315 | -81.80422 | 34989 ft | 493 kts | 153° |
| 2026-05-08 19:34 | 30.61391 | -81.76694 | 34995 ft | 485 kts | 160° |
| 2026-05-08 19:34 | 30.56377 | -81.73726 | 34996 ft | 474 kts | 166° |
| 2026-05-08 19:35 | 30.51211 | -81.71226 | 35009 ft | 471 kts | 167° |
| 2026-05-08 19:35 | 30.46067 | -81.68778 | 35007 ft | 473 kts | 167° |
| 2026-05-08 19:36 | 30.40949 | -81.66331 | 35008 ft | 475 kts | 167° |
| 2026-05-08 19:36 | 30.35809 | -81.63866 | 35011 ft | 477 kts | 167° |
| 2026-05-08 19:37 | 30.30641 | -81.61378 | 35011 ft | 475 kts | 167° |
| 2026-05-08 19:37 | 30.25525 | -81.58924 | 35013 ft | 476 kts | 167° |
| 2026-05-08 19:38 | 30.20407 | -81.56467 | 35009 ft | 476 kts | 167° |
| 2026-05-08 19:38 | 30.15239 | -81.53995 | 35011 ft | 476 kts | 167° |
| 2026-05-08 19:39 | 30.10127 | -81.51547 | 35008 ft | 475 kts | 167° |
| 2026-05-08 19:39 | 30.04997 | -81.49097 | 35013 ft | 477 kts | 166° |
| 2026-05-08 19:40 | 29.99826 | -81.46629 | 35013 ft | 479 kts | 166° |
| 2026-05-08 19:40 | 29.94679 | -81.44173 | 35011 ft | 478 kts | 166° |
| 2026-05-08 19:41 | 29.89583 | -81.41743 | 35008 ft | 476 kts | 166° |
| 2026-05-08 19:41 | 29.84429 | -81.39291 | 35009 ft | 478 kts | 166° |
| 2026-05-08 19:42 | 29.79214 | -81.36813 | 35006 ft | 479 kts | 166° |
| 2026-05-08 19:42 | 29.76606 | -81.35576 | 34825 ft | 481 kts | 166° |
| 2026-05-08 19:42 | 29.73994 | -81.34341 | 34114 ft | 485 kts | 166° |
| 2026-05-08 19:42 | 29.71320 | -81.33089 | 33631 ft | 478 kts | 166° |
| 2026-05-08 19:43 | 29.68525 | -81.31784 | 34029 ft | 470 kts | 166° |
| 2026-05-08 19:43 | 29.65999 | -81.30611 | 34427 ft | 466 kts | 167° |
| 2026-05-08 19:43 | 29.63494 | -81.29457 | 34807 ft | 462 kts | 167° |
| 2026-05-08 19:43 | 29.61014 | -81.28302 | 35011 ft | 463 kts | 166° |
| 2026-05-08 19:44 | 29.58544 | -81.27113 | 35001 ft | 468 kts | 166° |
| 2026-05-08 19:44 | 29.53455 | -81.24653 | 35002 ft | 475 kts | 166° |
| 2026-05-08 19:45 | 29.47351 | -81.21740 | 34996 ft | 480 kts | 166° |
| 2026-05-08 19:45 | 29.42054 | -81.19234 | 35003 ft | 481 kts | 166° |
| 2026-05-08 19:46 | 29.36868 | -81.16788 | 35003 ft | 481 kts | 166° |
| 2026-05-08 19:46 | 29.29069 | -81.13128 | 35004 ft | 480 kts | 166° |
| 2026-05-08 19:47 | 29.23877 | -81.10805 | 35003 ft | 479 kts | 167° |
| 2026-05-08 19:47 | 29.18697 | -81.08533 | 34999 ft | 479 kts | 167° |
| 2026-05-08 19:48 | 29.13529 | -81.06265 | 34996 ft | 481 kts | 167° |
| 2026-05-08 19:48 | 29.08293 | -81.03960 | 34995 ft | 481 kts | 167° |
| 2026-05-08 19:49 | 29.03079 | -81.01665 | 34992 ft | 482 kts | 167° |
| 2026-05-08 19:49 | 28.97741 | -80.99314 | 34987 ft | 481 kts | 167° |
| 2026-05-08 19:50 | 28.92523 | -80.97023 | 34984 ft | 482 kts | 166° |
| 2026-05-08 19:50 | 28.87230 | -80.94698 | 34983 ft | 482 kts | 167° |
| 2026-05-08 19:51 | 28.81801 | -80.92314 | 34980 ft | 481 kts | 167° |
| 2026-05-08 19:51 | 28.76493 | -80.89990 | 34976 ft | 480 kts | 167° |
| 2026-05-08 19:52 | 28.71245 | -80.87697 | 34975 ft | 481 kts | 166° |
| 2026-05-08 19:52 | 28.65728 | -80.85452 | 34970 ft | 478 kts | 169° |
| 2026-05-08 19:53 | 28.60475 | -80.83434 | 34971 ft | 477 kts | 169° |
| 2026-05-08 19:53 | 28.55157 | -80.81402 | 34973 ft | 478 kts | 169° |
| 2026-05-08 19:54 | 28.49840 | -80.79369 | 34979 ft | 478 kts | 169° |
| 2026-05-08 19:54 | 28.44480 | -80.77319 | 34978 ft | 478 kts | 169° |
| 2026-05-08 19:55 | 28.39135 | -80.75275 | 34980 ft | 477 kts | 169° |
| 2026-05-08 19:55 | 28.33789 | -80.73235 | 34975 ft | 477 kts | 168° |
| 2026-05-08 19:56 | 28.28470 | -80.71207 | 34975 ft | 477 kts | 168° |
| 2026-05-08 19:56 | 28.23100 | -80.69160 | 34972 ft | 477 kts | 168° |
| 2026-05-08 19:57 | 28.17704 | -80.67109 | 34971 ft | 476 kts | 168° |
| 2026-05-08 19:57 | 28.11925 | -80.64911 | 34973 ft | 477 kts | 168° |
| 2026-05-08 19:58 | 28.05515 | -80.62478 | 34976 ft | 478 kts | 168° |
| 2026-05-08 19:58 | 27.99153 | -80.60063 | 34972 ft | 477 kts | 168° |
| 2026-05-08 19:59 | 27.92778 | -80.57649 | 34961 ft | 476 kts | 168° |
| 2026-05-08 19:59 | 27.86428 | -80.55247 | 34961 ft | 478 kts | 168° |
| 2026-05-08 20:00 | 27.80049 | -80.52838 | 34966 ft | 478 kts | 168° |
| 2026-05-08 20:00 | 27.73727 | -80.50454 | 34973 ft | 478 kts | 168° |
| 2026-05-08 20:01 | 27.67427 | -80.47996 | 34981 ft | 479 kts | 167° |
| 2026-05-08 20:01 | 27.61106 | -80.45470 | 34987 ft | 478 kts | 167° |
| 2026-05-08 20:02 | 27.54804 | -80.42966 | 34988 ft | 478 kts | 167° |
| 2026-05-08 20:02 | 27.48489 | -80.40466 | 34991 ft | 479 kts | 167° |
| 2026-05-08 20:03 | 27.42174 | -80.37968 | 34987 ft | 479 kts | 167° |
| 2026-05-08 20:03 | 27.35953 | -80.35513 | 34988 ft | 479 kts | 167° |
| 2026-05-08 20:04 | 27.30612 | -80.33408 | 34987 ft | 480 kts | 167° |
| 2026-05-08 20:04 | 27.25308 | -80.31317 | 34987 ft | 479 kts | 167° |
| 2026-05-08 20:05 | 27.19978 | -80.29220 | 34985 ft | 479 kts | 167° |
| 2026-05-08 20:05 | 27.14664 | -80.27131 | 34985 ft | 479 kts | 167° |
| 2026-05-08 20:06 | 27.09275 | -80.25015 | 34983 ft | 479 kts | 167° |
| 2026-05-08 20:06 | 27.03849 | -80.22887 | 34983 ft | 479 kts | 167° |
| 2026-05-08 20:07 | 26.98454 | -80.20773 | 34983 ft | 479 kts | 167° |
| 2026-05-08 20:07 | 26.92800 | -80.18561 | 34981 ft | 479 kts | 167° |
| 2026-05-08 20:08 | 26.87111 | -80.16337 | 34984 ft | 480 kts | 167° |
| 2026-05-08 20:08 | 26.81186 | -80.14020 | 34983 ft | 480 kts | 167° |
| 2026-05-08 20:09 | 26.75502 | -80.11803 | 34988 ft | 480 kts | 167° |
| 2026-05-08 20:09 | 26.69820 | -80.09589 | 34995 ft | 480 kts | 167° |
| 2026-05-08 20:10 | 26.64062 | -80.07348 | 34996 ft | 480 kts | 166° |
| 2026-05-08 20:10 | 26.58322 | -80.05116 | 35002 ft | 480 kts | 166° |
| 2026-05-08 20:11 | 26.52265 | -80.02763 | 35003 ft | 480 kts | 166° |
| 2026-05-08 20:11 | 26.46285 | -80.00440 | 35007 ft | 480 kts | 166° |
| 2026-05-08 20:12 | 26.40148 | -79.98060 | 35005 ft | 479 kts | 166° |
| 2026-05-08 20:12 | 26.33977 | -79.95671 | 35007 ft | 480 kts | 166° |
| 2026-05-08 20:13 | 26.27734 | -79.93256 | 35009 ft | 479 kts | 166° |
| 2026-05-08 20:13 | 26.21529 | -79.90859 | 35004 ft | 479 kts | 166° |
| 2026-05-08 20:14 | 26.15349 | -79.88473 | 34993 ft | 479 kts | 166° |
| 2026-05-08 20:14 | 26.09149 | -79.86086 | 34988 ft | 479 kts | 166° |
| 2026-05-08 20:15 | 26.03007 | -79.83720 | 34977 ft | 479 kts | 165° |
| 2026-05-08 20:15 | 25.96781 | -79.81326 | 34977 ft | 479 kts | 165° |
| 2026-05-08 20:16 | 25.90607 | -79.78954 | 34976 ft | 478 kts | 165° |
| 2026-05-08 20:16 | 25.84432 | -79.76582 | 34976 ft | 479 kts | 165° |
| 2026-05-08 20:17 | 25.78268 | -79.74219 | 34976 ft | 479 kts | 165° |
| 2026-05-08 20:17 | 25.72048 | -79.71839 | 34976 ft | 478 kts | 165° |
| 2026-05-08 20:18 | 25.65876 | -79.69479 | 34976 ft | 478 kts | 165° |
| 2026-05-08 20:18 | 25.59664 | -79.67106 | 34976 ft | 478 kts | 165° |
| 2026-05-08 20:19 | 25.53490 | -79.64747 | 34976 ft | 478 kts | 165° |
| 2026-05-08 20:19 | 25.47286 | -79.62381 | 34976 ft | 478 kts | 165° |
| 2026-05-08 20:20 | 25.41092 | -79.60022 | 34976 ft | 478 kts | 165° |
| 2026-05-08 20:20 | 25.34877 | -79.57659 | 34976 ft | 477 kts | 165° |
| 2026-05-08 20:21 | 25.28686 | -79.55306 | 34976 ft | 477 kts | 165° |
| 2026-05-08 20:21 | 25.22504 | -79.52960 | 34975 ft | 477 kts | 165° |
| 2026-05-08 20:22 | 25.16301 | -79.50610 | 34976 ft | 477 kts | 165° |
| 2026-05-08 20:22 | 25.10106 | -79.48263 | 34976 ft | 477 kts | 165° |
| 2026-05-08 20:23 | 25.03903 | -79.45917 | 34976 ft | 477 kts | 165° |
| 2026-05-08 20:23 | 24.97707 | -79.43574 | 34978 ft | 478 kts | 164° |
| 2026-05-08 20:24 | 24.91501 | -79.41232 | 34983 ft | 477 kts | 164° |
| 2026-05-08 20:24 | 24.85311 | -79.38896 | 34984 ft | 476 kts | 164° |
| 2026-05-08 20:25 | 24.79105 | -79.36558 | 34986 ft | 477 kts | 164° |
| 2026-05-08 20:25 | 24.72897 | -79.34222 | 34985 ft | 477 kts | 165° |
| 2026-05-08 20:26 | 24.66756 | -79.31914 | 34986 ft | 476 kts | 165° |
| 2026-05-08 20:26 | 24.60628 | -79.29614 | 34985 ft | 476 kts | 164° |
| 2026-05-08 20:27 | 24.54414 | -79.27284 | 34983 ft | 476 kts | 164° |
| 2026-05-08 20:27 | 24.48247 | -79.24972 | 34983 ft | 476 kts | 164° |
| 2026-05-08 20:28 | 24.42033 | -79.22646 | 34980 ft | 476 kts | 164° |
| 2026-05-08 20:28 | 24.35871 | -79.20340 | 34982 ft | 476 kts | 164° |
| 2026-05-08 20:29 | 24.29683 | -79.18029 | 34981 ft | 476 kts | 164° |
| 2026-05-08 20:29 | 24.23472 | -79.15711 | 34979 ft | 475 kts | 164° |
| 2026-05-08 20:30 | 24.17299 | -79.13410 | 34979 ft | 475 kts | 164° |
| 2026-05-08 20:30 | 24.11119 | -79.11110 | 34977 ft | 475 kts | 164° |
| 2026-05-08 20:31 | 24.04929 | -79.08809 | 34977 ft | 475 kts | 163° |
| 2026-05-08 20:31 | 23.98677 | -79.06778 | 34976 ft | 473 kts | 169° |
| 2026-05-08 20:32 | 23.92271 | -79.05405 | 34976 ft | 472 kts | 172° |
| 2026-05-08 20:32 | 23.85909 | -79.04160 | 34976 ft | 472 kts | 172° |
| 2026-05-08 20:33 | 23.79825 | -79.02965 | 34976 ft | 471 kts | 172° |
| 2026-05-08 20:33 | 23.73692 | -79.01755 | 34977 ft | 471 kts | 172° |
| 2026-05-08 20:34 | 23.67196 | -79.00471 | 34976 ft | 471 kts | 172° |
| 2026-05-08 20:35 | 23.57526 | -78.98563 | 34977 ft | 471 kts | 172° |
| 2026-05-08 20:35 | 23.51030 | -78.97282 | 34976 ft | 471 kts | 172° |
| 2026-05-08 20:36 | 23.44543 | -78.96005 | 34980 ft | 471 kts | 172° |
| 2026-05-08 20:36 | 23.38111 | -78.94741 | 34982 ft | 470 kts | 172° |
| 2026-05-08 20:37 | 23.31644 | -78.93471 | 34983 ft | 470 kts | 172° |
| 2026-05-08 20:37 | 23.25266 | -78.91985 | 34981 ft | 472 kts | 166° |
| 2026-05-08 20:38 | 23.19086 | -78.89492 | 34980 ft | 474 kts | 156° |
| 2026-05-08 20:38 | 23.13319 | -78.85962 | 34977 ft | 476 kts | 147° |
| 2026-05-08 20:39 | 23.08025 | -78.81674 | 34973 ft | 476 kts | 143° |
| 2026-05-08 20:39 | 23.02772 | -78.77268 | 34966 ft | 475 kts | 143° |
| 2026-05-08 20:40 | 22.97527 | -78.72903 | 34962 ft | 475 kts | 143° |
| 2026-05-08 20:40 | 22.92289 | -78.68563 | 34960 ft | 474 kts | 143° |
| 2026-05-08 20:41 | 22.87004 | -78.64192 | 34964 ft | 475 kts | 143° |
| 2026-05-08 20:41 | 22.81735 | -78.59841 | 34966 ft | 476 kts | 143° |
| 2026-05-08 20:42 | 22.76481 | -78.55502 | 34972 ft | 476 kts | 143° |
| 2026-05-08 20:42 | 22.71210 | -78.51112 | 34968 ft | 475 kts | 142° |
| 2026-05-08 20:43 | 22.65944 | -78.46724 | 34966 ft | 474 kts | 142° |
| 2026-05-08 20:43 | 22.60694 | -78.42358 | 34966 ft | 474 kts | 142° |
| 2026-05-08 20:44 | 22.55463 | -78.38014 | 34956 ft | 474 kts | 142° |
| 2026-05-08 20:44 | 22.50240 | -78.33678 | 34951 ft | 475 kts | 143° |
| 2026-05-08 20:45 | 22.45210 | -78.29481 | 34950 ft | 475 kts | 142° |
| 2026-05-08 20:45 | 22.40122 | -78.25239 | 34948 ft | 475 kts | 142° |
| 2026-05-08 20:46 | 22.34893 | -78.20885 | 34944 ft | 475 kts | 142° |
| 2026-05-08 20:46 | 22.29620 | -78.16499 | 34944 ft | 474 kts | 143° |
| 2026-05-08 20:47 | 22.24356 | -78.12127 | 34945 ft | 475 kts | 142° |
| 2026-05-08 20:47 | 22.19059 | -78.07731 | 34953 ft | 475 kts | 142° |
| 2026-05-08 20:48 | 22.13731 | -78.03313 | 34954 ft | 475 kts | 142° |
| 2026-05-08 20:48 | 22.08423 | -77.98915 | 34953 ft | 474 kts | 142° |
| 2026-05-08 20:49 | 22.03114 | -77.94521 | 34953 ft | 474 kts | 142° |
| 2026-05-08 20:49 | 21.97802 | -77.90131 | 34956 ft | 474 kts | 143° |
| 2026-05-08 20:50 | 21.92158 | -77.86094 | 34951 ft | 474 kts | 150° |
| 2026-05-08 20:50 | 21.86080 | -77.82898 | 34958 ft | 474 kts | 158° |
| 2026-05-08 20:51 | 21.79684 | -77.80602 | 34954 ft | 473 kts | 165° |
| 2026-05-08 20:51 | 21.73158 | -77.78724 | 34955 ft | 473 kts | 166° |
| 2026-05-08 20:52 | 21.66639 | -77.76851 | 34959 ft | 473 kts | 165° |
| 2026-05-08 20:52 | 21.60089 | -77.74956 | 34964 ft | 472 kts | 165° |
| 2026-05-08 20:53 | 21.53552 | -77.73061 | 34966 ft | 473 kts | 165° |
| 2026-05-08 20:53 | 21.47046 | -77.71176 | 34964 ft | 472 kts | 165° |
| 2026-05-08 20:54 | 21.40570 | -77.69301 | 34964 ft | 472 kts | 165° |
| 2026-05-08 20:54 | 21.34069 | -77.67421 | 34966 ft | 473 kts | 165° |
| 2026-05-08 20:55 | 21.27642 | -77.65565 | 34962 ft | 472 kts | 165° |
| 2026-05-08 20:55 | 21.21147 | -77.63690 | 34957 ft | 472 kts | 165° |
| 2026-05-08 20:56 | 21.14683 | -77.61826 | 34953 ft | 471 kts | 165° |
| 2026-05-08 20:56 | 21.08204 | -77.59959 | 34945 ft | 472 kts | 165° |
| 2026-05-08 20:57 | 21.01667 | -77.58079 | 34941 ft | 472 kts | 165° |
| 2026-05-08 20:57 | 20.95246 | -77.56229 | 34938 ft | 472 kts | 165° |
| 2026-05-08 20:58 | 20.88808 | -77.54377 | 34929 ft | 471 kts | 165° |
| 2026-05-08 20:58 | 20.82398 | -77.52537 | 34925 ft | 471 kts | 165° |
| 2026-05-08 20:59 | 20.75944 | -77.50685 | 34925 ft | 472 kts | 165° |
| 2026-05-08 20:59 | 20.69462 | -77.48828 | 34921 ft | 472 kts | 165° |
| 2026-05-08 21:00 | 20.63049 | -77.46993 | 34923 ft | 472 kts | 165° |
| 2026-05-08 21:00 | 20.56486 | -77.45519 | 34928 ft | 472 kts | 171° |
| 2026-05-08 21:01 | 20.49814 | -77.44867 | 34926 ft | 472 kts | 178° |
| 2026-05-08 21:01 | 20.43129 | -77.44943 | 34928 ft | 472 kts | 181° |
| 2026-05-08 21:02 | 20.37099 | -77.45116 | 34926 ft | 471 kts | 181° |
| 2026-05-08 21:02 | 20.31095 | -77.45280 | 34930 ft | 472 kts | 181° |
| 2026-05-08 21:03 | 20.24981 | -77.45438 | 34933 ft | 472 kts | 181° |
| 2026-05-08 21:03 | 20.18854 | -77.45595 | 34948 ft | 471 kts | 181° |
| 2026-05-08 21:04 | 20.12660 | -77.45754 | 34962 ft | 472 kts | 181° |
| 2026-05-08 21:04 | 20.06187 | -77.45918 | 34964 ft | 471 kts | 181° |
| 2026-05-08 21:05 | 19.99798 | -77.46081 | 34873 ft | 472 kts | 181° |
| 2026-05-08 21:05 | 19.96547 | -77.46165 | 34592 ft | 470 kts | 181° |
| 2026-05-08 21:05 | 19.93320 | -77.46247 | 34312 ft | 468 kts | 181° |
| 2026-05-08 21:05 | 19.90114 | -77.46329 | 34037 ft | 465 kts | 181° |
| 2026-05-08 21:06 | 19.86974 | -77.46409 | 33765 ft | 464 kts | 181° |
| 2026-05-08 21:06 | 19.83891 | -77.46487 | 33500 ft | 464 kts | 181° |
| 2026-05-08 21:06 | 19.80737 | -77.46568 | 33231 ft | 464 kts | 181° |
| 2026-05-08 21:06 | 19.77539 | -77.46649 | 32956 ft | 465 kts | 181° |
| 2026-05-08 21:07 | 19.74365 | -77.46730 | 32695 ft | 466 kts | 180° |
| 2026-05-08 21:07 | 19.71185 | -77.46811 | 32447 ft | 467 kts | 180° |
| 2026-05-08 21:07 | 19.68013 | -77.46891 | 32199 ft | 468 kts | 180° |
| 2026-05-08 21:07 | 19.64793 | -77.46973 | 31949 ft | 468 kts | 181° |
| 2026-05-08 21:08 | 19.61615 | -77.47056 | 31706 ft | 468 kts | 180° |
| 2026-05-08 21:08 | 19.58447 | -77.47137 | 31456 ft | 468 kts | 180° |
| 2026-05-08 21:08 | 19.55258 | -77.47218 | 31074 ft | 468 kts | 180° |
| 2026-05-08 21:08 | 19.52070 | -77.47165 | 30529 ft | 468 kts | 175° |
| 2026-05-08 21:09 | 19.48930 | -77.46811 | 29878 ft | 468 kts | 170° |
| 2026-05-08 21:09 | 19.45869 | -77.46152 | 29372 ft | 463 kts | 165° |
| 2026-05-08 21:09 | 19.42956 | -77.45236 | 28947 ft | 457 kts | 160° |
| 2026-05-08 21:09 | 19.40063 | -77.44190 | 28493 ft | 452 kts | 159° |
| 2026-05-08 21:10 | 19.37194 | -77.43124 | 28029 ft | 448 kts | 159° |
| 2026-05-08 21:10 | 19.34373 | -77.42076 | 27565 ft | 445 kts | 159° |
| 2026-05-08 21:10 | 19.31471 | -77.41002 | 27086 ft | 441 kts | 159° |
| 2026-05-08 21:10 | 19.28556 | -77.39930 | 26606 ft | 437 kts | 159° |
| 2026-05-08 21:11 | 19.25672 | -77.38875 | 26124 ft | 434 kts | 159° |
| 2026-05-08 21:11 | 19.22864 | -77.37850 | 25652 ft | 432 kts | 159° |
| 2026-05-08 21:11 | 19.19992 | -77.36801 | 25172 ft | 429 kts | 159° |
| 2026-05-08 21:11 | 19.17172 | -77.35774 | 24695 ft | 426 kts | 159° |
| 2026-05-08 21:12 | 19.14403 | -77.34764 | 24227 ft | 424 kts | 159° |
| 2026-05-08 21:12 | 19.11611 | -77.33747 | 23749 ft | 422 kts | 159° |
| 2026-05-08 21:12 | 19.08828 | -77.32733 | 23272 ft | 420 kts | 159° |
| 2026-05-08 21:12 | 19.06052 | -77.31722 | 22792 ft | 419 kts | 158° |
| 2026-05-08 21:13 | 19.03298 | -77.30720 | 22314 ft | 417 kts | 158° |
| 2026-05-08 21:13 | 19.00573 | -77.29729 | 21848 ft | 416 kts | 158° |
| 2026-05-08 21:13 | 18.97846 | -77.28735 | 21383 ft | 414 kts | 158° |
| 2026-05-08 21:13 | 18.95148 | -77.27639 | 20913 ft | 411 kts | 154° |
| 2026-05-08 21:14 | 18.92572 | -77.26415 | 20447 ft | 409 kts | 152° |
| 2026-05-08 21:14 | 18.90056 | -77.25177 | 19985 ft | 407 kts | 152° |
| 2026-05-08 21:14 | 18.87537 | -77.23932 | 19523 ft | 405 kts | 151° |
| 2026-05-08 21:14 | 18.85035 | -77.22697 | 19060 ft | 402 kts | 151° |
| 2026-05-08 21:15 | 18.82548 | -77.21470 | 18597 ft | 400 kts | 151° |
| 2026-05-08 21:15 | 18.80077 | -77.20252 | 18139 ft | 398 kts | 152° |
| 2026-05-08 21:15 | 18.77651 | -77.19059 | 17674 ft | 396 kts | 151° |
| 2026-05-08 21:15 | 18.75195 | -77.17853 | 17218 ft | 393 kts | 151° |
| 2026-05-08 21:16 | 18.72794 | -77.16673 | 16772 ft | 390 kts | 151° |
| 2026-05-08 21:16 | 18.70371 | -77.15484 | 16315 ft | 388 kts | 151° |
| 2026-05-08 21:16 | 18.68011 | -77.14326 | 15869 ft | 385 kts | 151° |
| 2026-05-08 21:16 | 18.65741 | -77.13213 | 15438 ft | 383 kts | 151° |
| 2026-05-08 21:17 | 18.63411 | -77.12071 | 14989 ft | 380 kts | 151° |
| 2026-05-08 21:17 | 18.61043 | -77.10910 | 14526 ft | 377 kts | 151° |
| 2026-05-08 21:17 | 18.58762 | -77.09791 | 14082 ft | 374 kts | 151° |
| 2026-05-08 21:17 | 18.56502 | -77.08684 | 13647 ft | 371 kts | 151° |
| 2026-05-08 21:18 | 18.54299 | -77.07606 | 13217 ft | 368 kts | 151° |
| 2026-05-08 21:18 | 18.52083 | -77.06520 | 12775 ft | 365 kts | 152° |
| 2026-05-08 21:18 | 18.49997 | -77.05498 | 12362 ft | 363 kts | 152° |
| 2026-05-08 21:18 | 18.47926 | -77.04483 | 11946 ft | 361 kts | 152° |
| 2026-05-08 21:19 | 18.45950 | -77.03516 | 11552 ft | 359 kts | 152° |
| 2026-05-08 21:19 | 18.43690 | -77.02409 | 11099 ft | 357 kts | 152° |
| 2026-05-08 21:19 | 18.41611 | -77.01394 | 10668 ft | 355 kts | 153° |
| 2026-05-08 21:19 | 18.39677 | -77.00450 | 10435 ft | 347 kts | 153° |
| 2026-05-08 21:20 | 18.37752 | -76.99513 | 10305 ft | 336 kts | 153° |
| 2026-05-08 21:20 | 18.35909 | -76.98618 | 10204 ft | 325 kts | 153° |
| 2026-05-08 21:20 | 18.34111 | -76.97742 | 10088 ft | 314 kts | 153° |
| 2026-05-08 21:20 | 18.32366 | -76.96892 | 9863 ft | 308 kts | 153° |
| 2026-05-08 21:21 | 18.30647 | -76.96051 | 9515 ft | 307 kts | 153° |
| 2026-05-08 21:21 | 18.28938 | -76.95218 | 9173 ft | 306 kts | 153° |
| 2026-05-08 21:21 | 18.27248 | -76.94395 | 8844 ft | 304 kts | 153° |
| 2026-05-08 21:21 | 18.25523 | -76.93556 | 8513 ft | 302 kts | 153° |
| 2026-05-08 21:22 | 18.23859 | -76.92747 | 8180 ft | 301 kts | 153° |
| 2026-05-08 21:22 | 18.22187 | -76.91932 | 7847 ft | 299 kts | 154° |
| 2026-05-08 21:22 | 18.20439 | -76.91384 | 7479 ft | 300 kts | 175° |
| 2026-05-08 21:22 | 18.18630 | -76.91687 | 7136 ft | 300 kts | 203° |
| 2026-05-08 21:23 | 18.17092 | -76.92906 | 6787 ft | 297 kts | 231° |
| 2026-05-08 21:23 | 18.15888 | -76.94718 | 6432 ft | 294 kts | 237° |
| 2026-05-08 21:23 | 18.14882 | -76.96265 | 6114 ft | 293 kts | 234° |
| 2026-05-08 21:23 | 18.13768 | -76.97774 | 5788 ft | 291 kts | 230° |
| 2026-05-08 21:24 | 18.12591 | -76.99142 | 5545 ft | 286 kts | 225° |
| 2026-05-08 21:24 | 18.11318 | -77.00414 | 5512 ft | 276 kts | 221° |
| 2026-05-08 21:24 | 18.10016 | -77.01547 | 5503 ft | 265 kts | 217° |
| 2026-05-08 21:24 | 18.08719 | -77.02536 | 5484 ft | 253 kts | 213° |
| 2026-05-08 21:25 | 18.07357 | -77.03357 | 5180 ft | 252 kts | 197° |
| 2026-05-08 21:25 | 18.05789 | -77.03519 | 4851 ft | 246 kts | 168° |
| 2026-05-08 21:25 | 18.04414 | -77.02916 | 4662 ft | 232 kts | 142° |
| 2026-05-08 21:25 | 18.03504 | -77.01813 | 4308 ft | 223 kts | 120° |
| 2026-05-08 21:26 | 18.02912 | -77.00552 | 3989 ft | 215 kts | 112° |
| 2026-05-08 21:26 | 18.02424 | -76.99314 | 3752 ft | 207 kts | 111° |
| 2026-05-08 21:26 | 18.01933 | -76.98080 | 3518 ft | 201 kts | 112° |
| 2026-05-08 21:26 | 18.01445 | -76.96909 | 3293 ft | 195 kts | 113° |
| 2026-05-08 21:27 | 18.00960 | -76.95783 | 3079 ft | 190 kts | 114° |
| 2026-05-08 21:27 | 18.00489 | -76.94711 | 2906 ft | 181 kts | 115° |
| 2026-05-08 21:27 | 18.00019 | -76.93649 | 2701 ft | 174 kts | 115° |
| 2026-05-08 21:27 | 17.99570 | -76.92634 | 2496 ft | 167 kts | 115° |
| 2026-05-08 21:28 | 17.99131 | -76.91642 | 2294 ft | 160 kts | 115° |
| 2026-05-08 21:28 | 17.98717 | -76.90704 | 2101 ft | 153 kts | 115° |
| 2026-05-08 21:28 | 17.98321 | -76.89807 | 1924 ft | 147 kts | 115° |
| 2026-05-08 21:28 | 17.97941 | -76.88945 | 1773 ft | 148 kts | 115° |
| 2026-05-08 21:29 | 17.97540 | -76.88033 | 1610 ft | 147 kts | 115° |
| 2026-05-08 21:29 | 17.97125 | -76.87091 | 1437 ft | 143 kts | 116° |
| 2026-05-08 21:29 | 17.96729 | -76.86189 | 1242 ft | 134 kts | 116° |
| 2026-05-08 21:29 | 17.96343 | -76.85331 | 1084 ft | 133 kts | 119° |
| 2026-05-08 21:30 | 17.95893 | -76.84493 | 927 ft | 133 kts | 120° |
| 2026-05-08 21:30 | 17.95489 | -76.83664 | 773 ft | 133 kts | 114° |
| 2026-05-08 21:30 | 17.95152 | -76.82790 | 617 ft | 132 kts | 113° |
| 2026-05-08 21:30 | 17.94806 | -76.81915 | 434 ft | 132 kts | 114° |
| 2026-05-08 21:31 | 17.94453 | -76.81043 | 262 ft | 132 kts | 113° |
| 2026-05-08 21:31 | 17.94124 | -76.80163 | 131 ft | 132 kts | 114° |
| 2026-05-08 21:31 | 17.93822 | -76.79393 | 33 ft | 116 kts | 113° |
| 2026-05-08 21:31 | 17.93594 | -76.78827 | 32 ft | 72 kts | 110° |
| 2026-05-08 21:32 | 17.93479 | -76.78527 | 32 ft | 29 kts | 112° |
| 2026-05-08 21:32 | 17.93419 | -76.78363 | 32 ft | 25 kts | 105° |
| 2026-05-08 21:32 | 17.93405 | -76.78206 | 32 ft | 24 kts | 86° |
| 2026-05-08 21:32 | 17.93419 | -76.78085 | 32 ft | 15 kts | 79° |
| 2026-05-08 21:33 | 17.93432 | -76.78020 | 33 ft | 7 kts | 77° |
| 2026-05-08 21:33 | 17.93450 | -76.77977 | 33 ft | 6 kts | 41° |
| 2026-05-08 21:33 | 17.93487 | -76.77969 | 33 ft | 6 kts | 356° |
| 2026-05-08 21:33 | 17.93530 | -76.77973 | 33 ft | 6 kts | 354° |
| 2026-05-08 21:34 | 17.93552 | -76.77976 | 33 ft | 3 kts | 353° |
| 2026-05-08 21:34 | 17.93562 | -76.77977 | 33 ft | 1 kts | 355° |
| 2026-05-08 21:34 | 17.93566 | -76.77977 | 33 ft | 0 kts | 355° |